createdAt,value
2024-04-23T00:00:27.613Z,101159.80
2024-04-23T00:03:21.368Z,101161.80
2024-04-23T00:05:55.002Z,101158.00
2024-04-23T00:08:28.818Z,101161.80
2024-04-23T00:11:02.755Z,101162.20
2024-04-23T00:13:36.520Z,101155.80
2024-04-23T00:16:12.382Z,101151.40
2024-04-23T00:18:45.949Z,101149.60
2024-04-23T00:21:19.734Z,101150.40
2024-04-23T00:23:53.542Z,101159.00
2024-04-23T00:26:27.236Z,101155.60
2024-04-23T00:29:01.001Z,101157.40
2024-04-23T00:31:34.690Z,101160.00
2024-04-23T00:34:08.287Z,101165.20
2024-04-23T00:36:51.780Z,101163.40
2024-04-23T00:39:25.835Z,101167.60
2024-04-23T00:42:00.624Z,101165.20
2024-04-23T00:44:34.360Z,101174.20
2024-04-23T00:47:09.465Z,101172.00
2024-04-23T00:49:43.715Z,101173.00
2024-04-23T00:52:19.091Z,101178.80
2024-04-23T00:54:54.305Z,101184.20
2024-04-23T00:57:27.897Z,101186.00
2024-04-23T01:00:01.812Z,101188.00
2024-04-23T01:02:35.894Z,101182.80
2024-04-23T01:05:10.500Z,101177.20
2024-04-23T01:07:43.941Z,101175.00
2024-04-23T01:10:18.324Z,101173.20
2024-04-23T01:12:52.048Z,101173.20
2024-04-23T01:15:27.900Z,101167.80
2024-04-23T01:18:06.813Z,101164.60
2024-04-23T01:20:42.472Z,101158.00
2024-04-23T01:23:24.089Z,101161.80
2024-04-23T01:26:07.318Z,101155.20
2024-04-23T01:28:44.304Z,101159.60
2024-04-23T01:31:21.206Z,101154.00
2024-04-23T01:33:57.965Z,101151.00
2024-04-23T01:36:32.868Z,101150.60
2024-04-23T01:39:07.613Z,101141.80
2024-04-23T01:41:41.239Z,101144.60
2024-04-23T01:44:15.021Z,101144.40
2024-04-23T01:46:49.690Z,101147.80
2024-04-23T01:49:23.738Z,101150.40
2024-04-23T01:51:57.864Z,101152.00
2024-04-23T01:54:31.564Z,101151.80
2024-04-23T01:57:09.644Z,101150.80
2024-04-23T01:59:54.097Z,101154.20
2024-04-23T02:02:29.247Z,101154.40
2024-04-23T02:05:04.316Z,101157.00
2024-04-23T02:07:38.658Z,101158.60
2024-04-23T02:10:13.649Z,101161.00
2024-04-23T02:12:47.703Z,101152.40
2024-04-23T02:15:22.239Z,101156.80
2024-04-23T02:17:57.573Z,101158.60
2024-04-23T02:20:31.378Z,101161.00
2024-04-23T02:23:05.035Z,101168.60
2024-04-23T02:25:38.787Z,101171.20
2024-04-23T02:28:12.485Z,101169.80
2024-04-23T02:30:46.248Z,101168.40
2024-04-23T02:33:20.044Z,101170.80
2024-04-23T02:35:53.996Z,101170.80
2024-04-23T02:38:27.546Z,101175.40
2024-04-23T02:41:01.322Z,101164.20
2024-04-23T02:43:35.068Z,101165.60
2024-04-23T02:46:09.317Z,101164.80
2024-04-23T02:48:42.919Z,101166.40
2024-04-23T02:51:16.345Z,101167.40
2024-04-23T02:53:50.030Z,101167.20
2024-04-23T02:56:24.155Z,101164.60
2024-04-23T02:58:58.842Z,101161.00
2024-04-23T03:01:32.467Z,101159.20
2024-04-23T03:04:06.003Z,101159.80
2024-04-23T03:06:39.815Z,101156.40
2024-04-23T03:09:13.473Z,101157.00
2024-04-23T03:11:57.029Z,101155.80
2024-04-23T03:14:30.655Z,101153.00
2024-04-23T03:17:05.033Z,101147.60
2024-04-23T03:19:38.867Z,101142.80
2024-04-23T03:22:12.472Z,101144.20
2024-04-23T03:24:46.239Z,101145.40
2024-04-23T03:27:19.863Z,101144.60
2024-04-23T03:29:53.473Z,101142.20
2024-04-23T03:32:26.990Z,101133.20
2024-04-23T03:35:00.781Z,101135.00
2024-04-23T03:37:34.740Z,101133.80
2024-04-23T03:40:11.563Z,101133.20
2024-04-23T03:42:45.246Z,101126.80
2024-04-23T03:45:18.578Z,101124.00
2024-04-23T03:47:52.091Z,101116.40
2024-04-23T03:50:27.924Z,101112.60
2024-04-23T03:53:01.786Z,101111.80
2024-04-23T03:55:35.658Z,101110.00
2024-04-23T03:58:09.327Z,101108.00
2024-04-23T04:00:42.758Z,101110.40
2024-04-23T04:03:33.797Z,101108.40
2024-04-23T04:06:08.404Z,101117.00
2024-04-23T04:08:42.588Z,101115.60
2024-04-23T04:11:16.217Z,101115.60
2024-04-23T04:13:50.113Z,101113.00
2024-04-23T04:16:24.623Z,101119.20
2024-04-23T04:18:58.222Z,101120.40
2024-04-23T04:21:31.923Z,101115.40
2024-04-23T04:24:06.187Z,101124.80
2024-04-23T04:26:39.764Z,101115.40
2024-04-23T04:29:13.319Z,101125.80
2024-04-23T04:31:46.841Z,101119.00
2024-04-23T04:34:21.966Z,101120.40
2024-04-23T04:36:55.383Z,101117.00
2024-04-23T04:39:29.156Z,101115.00
2024-04-23T04:42:05.974Z,101115.00
2024-04-23T04:44:41.166Z,101113.20
2024-04-23T04:47:14.873Z,101117.00
2024-04-23T04:49:48.645Z,101116.20
2024-04-23T04:52:22.328Z,101116.40
2024-04-23T04:54:55.794Z,101117.60
2024-04-23T04:57:32.181Z,101108.40
2024-04-23T05:00:06.916Z,101103.80
2024-04-23T05:02:41.152Z,101101.20
2024-04-23T05:05:14.791Z,101101.00
2024-04-23T05:07:48.331Z,101097.40
2024-04-23T05:10:22.296Z,101086.60
2024-04-23T05:12:56.076Z,101084.20
2024-04-23T05:15:30.659Z,101085.00
2024-04-23T05:18:04.408Z,101087.40
2024-04-23T05:20:38.383Z,101082.40
2024-04-23T05:23:12.082Z,101079.20
2024-04-23T05:25:47.128Z,101082.40
2024-04-23T05:28:20.867Z,101081.00
2024-04-23T05:31:12.159Z,101080.60
2024-04-23T05:33:46.012Z,101086.60
2024-04-23T05:36:23.923Z,101078.00
2024-04-23T05:38:57.942Z,101072.20
2024-04-23T05:41:32.031Z,101075.40
2024-04-23T05:44:05.944Z,101072.20
2024-04-23T05:46:39.506Z,101075.60
2024-04-23T05:50:05.574Z,101071.20
2024-04-23T05:53:50.343Z,101063.00
2024-04-23T05:56:43.451Z,101069.80
2024-04-23T05:59:17.167Z,101060.00
2024-04-23T06:01:50.814Z,101064.80
2024-04-23T06:04:24.577Z,101059.60
2024-04-23T06:06:58.300Z,101052.00
2024-04-23T06:09:33.650Z,101053.00
2024-04-23T06:12:08.372Z,101044.20
2024-04-23T06:14:44.423Z,101042.20
2024-04-23T06:17:32.037Z,101037.20
2024-04-23T06:20:13.821Z,101033.00
2024-04-23T06:22:50.360Z,101037.20
2024-04-23T06:25:26.032Z,101039.20
2024-04-23T06:27:59.741Z,101033.40
2024-04-23T06:30:33.572Z,101037.40
2024-04-23T06:33:07.481Z,101039.20
2024-04-23T06:35:41.186Z,101037.60
2024-04-23T06:38:14.861Z,101028.40
2024-04-23T06:40:53.872Z,101022.00
2024-04-23T06:43:28.830Z,101021.20
2024-04-23T06:46:02.488Z,101017.60
2024-04-23T06:48:36.083Z,101021.40
2024-04-23T06:51:11.632Z,101018.00
2024-04-23T06:53:45.263Z,101010.20
2024-04-23T06:56:18.897Z,101009.40
2024-04-23T06:58:52.687Z,100998.20
2024-04-23T07:01:26.537Z,100999.40
2024-04-23T07:04:00.263Z,100996.60
2024-04-23T07:06:37.810Z,100994.20
2024-04-23T07:09:12.805Z,100987.20
2024-04-23T07:11:47.486Z,100982.80
2024-04-23T07:14:21.456Z,100984.00
2024-04-23T07:16:55.631Z,100971.80
2024-04-23T07:19:29.923Z,100970.40
2024-04-23T07:22:03.699Z,100967.60
2024-04-23T07:24:37.600Z,100964.60
2024-04-23T07:27:11.496Z,100959.40
2024-04-23T07:29:45.107Z,100958.80
2024-04-23T07:32:19.759Z,100951.40
2024-04-23T07:34:53.662Z,100944.00
2024-04-23T07:37:27.909Z,100942.00
2024-04-23T07:40:01.498Z,100939.80
2024-04-23T07:42:36.213Z,100927.60
2024-04-23T07:45:12.883Z,100927.00
2024-04-23T07:47:46.639Z,100914.80
2024-04-23T07:50:21.983Z,100916.80
2024-04-23T07:52:55.833Z,100910.40
2024-04-23T07:55:29.891Z,100908.20
2024-04-23T07:58:03.961Z,100913.80
2024-04-23T08:00:37.782Z,100910.20
2024-04-23T08:03:13.441Z,100905.00
2024-04-23T08:05:47.235Z,100898.60
2024-04-23T08:08:22.032Z,100897.80
2024-04-23T08:10:56.202Z,100893.40
2024-04-23T08:13:31.442Z,100887.40
2024-04-23T08:16:06.001Z,100889.00
2024-04-23T08:18:39.832Z,100886.20
2024-04-23T08:21:13.459Z,100877.20
2024-04-23T08:23:50.130Z,100873.20
2024-04-23T08:26:24.098Z,100871.60
2024-04-23T08:29:01.930Z,100873.20
2024-04-23T08:31:40.275Z,100872.80
2024-04-23T08:34:14.295Z,100873.40
2024-04-23T08:36:48.058Z,100873.60
2024-04-23T08:39:21.910Z,100871.00
2024-04-23T08:41:58.532Z,100863.60
2024-04-23T08:44:41.221Z,100856.80
2024-04-23T08:47:16.155Z,100856.40
2024-04-23T08:49:51.137Z,100844.80
2024-04-23T08:52:26.037Z,100835.60
2024-04-23T08:54:59.904Z,100829.40
2024-04-23T08:57:35.539Z,100825.40
2024-04-23T09:00:13.221Z,100818.40
2024-04-23T09:02:49.146Z,100809.40
2024-04-23T09:05:24.449Z,100799.20
2024-04-23T09:07:59.659Z,100800.40
2024-04-23T09:10:34.775Z,100797.80
2024-04-23T09:13:09.770Z,100799.00
2024-04-23T09:15:43.502Z,100793.40
2024-04-23T09:18:19.060Z,100792.00
2024-04-23T09:20:53.431Z,100784.60
2024-04-23T09:23:32.308Z,100781.00
2024-04-23T09:26:07.893Z,100778.60
2024-04-23T09:28:44.663Z,100781.20
2024-04-23T09:31:23.949Z,100782.00
2024-04-23T09:33:59.084Z,100773.60
2024-04-23T09:36:36.532Z,100772.60
2024-04-23T09:39:19.753Z,100763.80
2024-04-23T09:42:03.426Z,100762.20
2024-04-23T09:44:40.913Z,100758.00
2024-04-23T09:47:16.809Z,100753.40
2024-04-23T09:49:58.305Z,100753.00
2024-04-23T09:52:36.945Z,100754.40
2024-04-23T09:55:15.492Z,100757.40
2024-04-23T09:57:53.762Z,100745.40
2024-04-23T10:00:29.649Z,100743.40
2024-04-23T10:03:16.328Z,100734.40
2024-04-23T10:05:52.984Z,100733.20
2024-04-23T10:08:39.826Z,100726.80
2024-04-23T10:11:22.288Z,100721.60
2024-04-23T10:14:05.431Z,100713.80
2024-04-23T10:16:51.050Z,100709.20
2024-04-23T10:19:28.283Z,100705.00
2024-04-23T10:22:04.178Z,100694.60
2024-04-23T10:24:38.082Z,100696.00
2024-04-23T10:27:13.923Z,100691.20
2024-04-23T10:29:50.880Z,100691.80
2024-04-23T10:32:29.918Z,100680.80
2024-04-23T10:35:06.796Z,100677.00
2024-04-23T10:37:44.904Z,100665.80
2024-04-23T10:40:19.650Z,100656.20
2024-04-23T10:42:53.322Z,100654.40
2024-04-23T10:45:27.510Z,100655.60
2024-04-23T10:48:10.357Z,100649.00
2024-04-23T10:50:53.957Z,100647.20
2024-04-23T10:53:27.952Z,100641.80
2024-04-23T10:56:01.895Z,100634.40
2024-04-23T10:58:42.153Z,100633.60
2024-04-23T11:01:29.455Z,100623.40
2024-04-23T11:04:10.888Z,100619.60
2024-04-23T11:06:49.290Z,100620.60
2024-04-23T11:09:29.332Z,100617.80
2024-04-23T11:12:02.977Z,100614.00
2024-04-23T11:14:40.612Z,100608.80
2024-04-23T11:17:14.607Z,100606.60
2024-04-23T11:19:51.965Z,100613.60
2024-04-23T11:22:50.305Z,100617.40
2024-04-23T11:25:35.277Z,100619.80
2024-04-23T11:28:10.298Z,100611.80
2024-04-23T11:30:52.320Z,100602.60
2024-04-23T11:33:26.559Z,100597.40
2024-04-23T11:36:00.976Z,100594.20
2024-04-23T11:38:46.782Z,100579.80
2024-04-23T11:41:20.353Z,100582.80
2024-04-23T11:43:54.252Z,100573.40
2024-04-23T11:46:28.151Z,100568.20
2024-04-23T11:49:02.471Z,100571.00
2024-04-23T11:51:36.942Z,100559.80
2024-04-23T11:54:11.380Z,100555.60
2024-04-23T11:56:46.106Z,100559.20
2024-04-23T11:59:23.465Z,100557.00
2024-04-23T12:01:57.213Z,100550.20
2024-04-23T12:04:31.596Z,100538.40
2024-04-23T12:07:06.514Z,100539.00
2024-04-23T12:09:40.301Z,100535.80
2024-04-23T12:12:18.320Z,100524.60
2024-04-23T12:14:54.371Z,100517.60
2024-04-23T12:17:28.300Z,100509.60
2024-04-23T12:20:02.521Z,100516.80
2024-04-23T12:22:37.670Z,100510.40
2024-04-23T12:25:12.908Z,100512.40
2024-04-23T12:27:49.252Z,100502.20
2024-04-23T12:30:29.397Z,100504.00
2024-04-23T12:33:15.297Z,100490.40
2024-04-23T12:35:49.894Z,100490.00
2024-04-23T12:38:23.595Z,100490.00
2024-04-23T12:40:58.034Z,100486.80
2024-04-23T12:43:33.257Z,100483.00
2024-04-23T12:46:07.731Z,100480.40
2024-04-23T12:48:42.274Z,100469.40
2024-04-23T12:51:16.427Z,100462.20
2024-04-23T12:53:50.655Z,100445.60
2024-04-23T12:56:24.739Z,100429.60
2024-04-23T12:58:58.744Z,100422.60
2024-04-23T13:01:41.753Z,100424.40
2024-04-23T13:04:19.281Z,100417.80
2024-04-23T13:06:53.138Z,100413.20
2024-04-23T13:09:26.920Z,100414.60
2024-04-23T13:12:03.599Z,100409.20
2024-04-23T13:14:37.440Z,100410.40
2024-04-23T13:17:13.827Z,100417.20
2024-04-23T13:19:50.512Z,100417.40
2024-04-23T13:22:30.503Z,100421.00
2024-04-23T13:25:04.616Z,100420.40
2024-04-23T13:27:38.477Z,100422.20
2024-04-23T13:30:15.315Z,100417.80
2024-04-23T13:32:50.104Z,100421.40
2024-04-23T13:35:25.502Z,100418.80
2024-04-23T13:37:59.502Z,100421.00
2024-04-23T13:40:33.741Z,100402.80
2024-04-23T13:43:08.573Z,100405.00
2024-04-23T13:45:42.326Z,100399.00
2024-04-23T13:48:16.044Z,100393.20
2024-04-23T13:50:49.886Z,100382.80
2024-04-23T13:53:23.598Z,100378.80
2024-04-23T13:55:57.427Z,100381.40
2024-04-23T13:58:31.309Z,100376.00
2024-04-23T14:01:11.045Z,100374.00
2024-04-23T14:03:45.024Z,100363.80
2024-04-23T14:06:19.499Z,100363.20
2024-04-23T14:08:53.360Z,100365.00
2024-04-23T14:11:28.546Z,100354.80
2024-04-23T14:14:02.474Z,100359.60
2024-04-23T14:16:36.321Z,100357.20
2024-04-23T14:19:12.347Z,100358.20
2024-04-23T14:21:49.313Z,100348.00
2024-04-23T14:24:23.450Z,100350.00
2024-04-23T14:26:57.036Z,100346.60
2024-04-23T14:29:30.992Z,100339.60
2024-04-23T14:32:06.150Z,100339.20
2024-04-23T14:34:39.830Z,100342.00
2024-04-23T14:37:13.498Z,100334.00
2024-04-23T14:39:47.112Z,100327.60
2024-04-23T14:42:21.970Z,100322.80
2024-04-23T14:44:58.138Z,100314.20
2024-04-23T14:47:34.438Z,100311.00
2024-04-23T14:50:12.450Z,100305.80
2024-04-23T14:52:46.317Z,100305.40
2024-04-23T14:55:20.060Z,100298.00
2024-04-23T14:57:56.195Z,100294.60
2024-04-23T15:00:31.129Z,100293.60
2024-04-23T15:03:05.494Z,100297.40
2024-04-23T15:05:42.590Z,100295.00
2024-04-23T15:08:16.504Z,100291.80
2024-04-23T15:10:53.695Z,100290.80
2024-04-23T15:13:27.438Z,100291.60
2024-04-23T15:16:06.216Z,100289.00
2024-04-23T15:18:42.136Z,100295.60
2024-04-23T15:21:16.885Z,100300.00
2024-04-23T15:23:50.941Z,100299.60
2024-04-23T15:26:25.257Z,100299.40
2024-04-23T15:28:59.206Z,100299.40
2024-04-23T15:31:33.199Z,100298.80
2024-04-23T15:34:08.462Z,100293.00
2024-04-23T15:36:42.513Z,100291.60
2024-04-23T15:39:16.308Z,100295.00
2024-04-23T15:41:49.972Z,100296.40
2024-04-23T15:44:24.608Z,100292.40
2024-04-23T15:46:58.240Z,100287.80
2024-04-23T15:49:31.990Z,100282.20
2024-04-23T15:52:06.689Z,100274.60
2024-04-23T15:54:40.749Z,100272.80
2024-04-23T15:57:15.763Z,100269.40
2024-04-23T15:59:50.978Z,100273.60
2024-04-23T16:02:28.543Z,100269.00
2024-04-23T16:05:03.049Z,100267.00
2024-04-23T16:07:36.985Z,100278.60
2024-04-23T16:10:11.728Z,100282.60
2024-04-23T16:12:45.324Z,100283.20
2024-04-23T16:15:19.247Z,100285.60
2024-04-23T16:17:53.125Z,100280.20
2024-04-23T16:20:27.125Z,100279.00
2024-04-23T16:23:01.041Z,100274.60
2024-04-23T16:25:35.806Z,100272.20
2024-04-23T16:28:10.253Z,100274.40
2024-04-23T16:30:44.015Z,100275.60
2024-04-23T16:33:18.680Z,100274.00
2024-04-23T16:35:52.737Z,100273.00
2024-04-23T16:38:26.570Z,100275.20
2024-04-23T16:41:04.242Z,100275.40
2024-04-23T16:43:39.018Z,100269.60
2024-04-23T16:46:14.406Z,100273.20
2024-04-23T16:48:48.681Z,100271.00
2024-04-23T16:51:22.588Z,100268.40
2024-04-23T16:53:56.253Z,100263.40
2024-04-23T16:56:30.169Z,100265.00
2024-04-23T16:59:04.388Z,100265.00
2024-04-23T17:01:38.607Z,100263.60
2024-04-23T17:04:12.821Z,100259.00
2024-04-23T17:06:46.687Z,100258.00
2024-04-23T17:09:20.514Z,100261.20
2024-04-23T17:11:54.815Z,100260.20
2024-04-23T17:14:28.705Z,100259.60
2024-04-23T17:17:04.054Z,100261.80
2024-04-23T17:19:38.091Z,100257.20
2024-04-23T17:22:12.230Z,100262.80
2024-04-23T17:24:46.524Z,100260.20
2024-04-23T17:27:20.666Z,100261.60
2024-04-23T17:29:55.961Z,100264.80
2024-04-23T17:32:30.342Z,100260.80
2024-04-23T17:35:05.288Z,100259.20
2024-04-23T17:37:42.055Z,100252.60
2024-04-23T17:40:17.293Z,100252.00
2024-04-23T17:42:54.151Z,100252.80
2024-04-23T17:45:28.256Z,100250.80
2024-04-23T17:48:02.483Z,100246.60
2024-04-23T17:50:38.290Z,100245.20
2024-04-23T17:53:12.477Z,100245.80
2024-04-23T17:55:46.779Z,100246.20
2024-04-23T17:58:21.295Z,100243.00
2024-04-23T18:00:57.617Z,100241.60
2024-04-23T18:03:34.071Z,100244.80
2024-04-23T18:06:13.075Z,100240.40
2024-04-23T18:08:47.211Z,100240.40
2024-04-23T18:11:24.864Z,100243.80
2024-04-23T18:13:59.315Z,100244.40
2024-04-23T18:16:34.986Z,100239.80
2024-04-23T18:19:08.995Z,100238.60
2024-04-23T18:21:42.774Z,100242.20
2024-04-23T18:24:18.616Z,100241.00
2024-04-23T18:26:55.726Z,100237.80
2024-04-23T18:29:29.708Z,100241.60
2024-04-23T18:32:06.107Z,100251.40
2024-04-23T18:34:40.252Z,100246.00
2024-04-23T18:37:14.125Z,100250.80
2024-04-23T18:39:49.274Z,100252.40
2024-04-23T18:42:23.030Z,100252.60
2024-04-23T18:44:57.240Z,100255.00
2024-04-23T18:47:33.316Z,100256.40
2024-04-23T18:50:13.390Z,100250.80
2024-04-23T18:52:47.532Z,100250.40
2024-04-23T18:55:21.426Z,100251.40
2024-04-23T18:57:55.232Z,100248.60
2024-04-23T19:00:29.473Z,100248.20
2024-04-23T19:03:03.469Z,100243.40
2024-04-23T19:05:37.652Z,100246.60
2024-04-23T19:08:12.319Z,100246.60
2024-04-23T19:10:46.530Z,100242.80
2024-04-23T19:13:20.924Z,100234.40
2024-04-23T19:15:55.038Z,100233.80
2024-04-23T19:18:31.926Z,100231.40
2024-04-23T19:21:06.789Z,100225.00
2024-04-23T19:23:40.743Z,100224.80
2024-04-23T19:26:14.641Z,100220.40
2024-04-23T19:28:49.146Z,100218.00
2024-04-23T19:31:22.991Z,100216.80
2024-04-23T19:33:57.147Z,100215.80
2024-04-23T19:36:31.261Z,100214.40
2024-04-23T19:39:05.604Z,100208.60
2024-04-23T19:41:39.641Z,100210.00
2024-04-23T19:44:16.975Z,100207.80
2024-04-23T19:46:51.463Z,100203.80
2024-04-23T19:49:26.621Z,100204.40
2024-04-23T19:52:00.961Z,100202.00
2024-04-23T19:54:35.137Z,100196.60
2024-04-23T19:57:29.185Z,100192.40
2024-04-23T20:00:03.419Z,100192.60
2024-04-23T20:02:39.231Z,100190.80
2024-04-23T20:05:13.633Z,100182.60
2024-04-23T20:07:47.693Z,100181.20
2024-04-23T20:10:21.804Z,100174.80
2024-04-23T20:12:55.963Z,100175.60
2024-04-23T20:15:29.898Z,100171.80
2024-04-23T20:18:04.481Z,100165.20
2024-04-23T20:20:40.295Z,100159.00
2024-04-23T20:23:14.538Z,100156.20
2024-04-23T20:25:48.929Z,100155.60
2024-04-23T20:28:24.458Z,100161.20
2024-04-23T20:31:00.809Z,100161.60
2024-04-23T20:33:35.942Z,100158.20
2024-04-23T20:36:11.381Z,100158.20
2024-04-23T20:38:45.511Z,100151.00
2024-04-23T20:41:19.391Z,100154.60
2024-04-23T20:43:53.269Z,100156.80
2024-04-23T20:46:27.194Z,100154.40
2024-04-23T20:49:00.992Z,100151.00
2024-04-23T20:51:34.790Z,100141.60
2024-04-23T20:54:08.792Z,100142.40
2024-04-23T20:56:42.684Z,100143.40
2024-04-23T20:59:16.600Z,100141.40
2024-04-23T21:01:50.444Z,100140.80
2024-04-23T21:04:24.517Z,100137.80
2024-04-23T21:06:58.422Z,100137.00
2024-04-23T21:09:32.433Z,100136.40
2024-04-23T21:12:07.381Z,100132.00
2024-04-23T21:14:41.198Z,100126.60
2024-04-23T21:17:15.044Z,100127.00
2024-04-23T21:19:48.924Z,100125.20
2024-04-23T21:22:22.706Z,100121.80
2024-04-23T21:24:56.468Z,100116.80
2024-04-23T21:27:30.256Z,100122.40
2024-04-23T21:30:05.214Z,100120.80
2024-04-23T21:32:45.385Z,100114.60
2024-04-23T21:35:19.842Z,100112.00
2024-04-23T21:38:01.544Z,100108.80
2024-04-23T21:40:36.507Z,100108.20
2024-04-23T21:43:10.355Z,100101.40
2024-04-23T21:45:44.314Z,100104.80
2024-04-23T21:48:18.269Z,100094.60
2024-04-23T21:50:52.144Z,100095.80
2024-04-23T21:53:26.215Z,100094.20
2024-04-23T21:56:00.140Z,100092.00
2024-04-23T21:58:35.050Z,100097.60
2024-04-23T22:01:16.391Z,100096.80
2024-04-23T22:03:51.631Z,100095.00
2024-04-23T22:06:25.915Z,100095.80
2024-04-23T22:08:59.847Z,100093.80
2024-04-23T22:11:33.780Z,100099.60
2024-04-23T22:14:08.464Z,100098.40
2024-04-23T22:16:44.353Z,100095.60
2024-04-23T22:19:19.379Z,100092.60
2024-04-23T22:21:52.975Z,100090.80
2024-04-23T22:24:26.613Z,100090.60
2024-04-23T22:27:00.382Z,100093.60
2024-04-23T22:29:34.276Z,100084.80
2024-04-23T22:32:08.705Z,100083.40
2024-04-23T22:34:43.826Z,100084.00
2024-04-23T22:37:17.545Z,100081.00
2024-04-23T22:39:51.436Z,100075.60
2024-04-23T22:42:25.127Z,100072.40
2024-04-23T22:44:58.690Z,100072.40
2024-04-23T22:47:32.548Z,100065.80
2024-04-23T22:50:07.213Z,100066.80
2024-04-23T22:52:40.861Z,100065.00
2024-04-23T22:55:14.465Z,100061.40
2024-04-23T22:57:48.120Z,100057.20
2024-04-23T23:00:21.861Z,100048.00
2024-04-23T23:02:55.583Z,100050.00
2024-04-23T23:05:29.360Z,100049.20
2024-04-23T23:08:03.670Z,100041.80
2024-04-23T23:10:37.497Z,100043.00
2024-04-23T23:13:11.238Z,100037.20
2024-04-23T23:15:44.820Z,100034.60
2024-04-23T23:18:18.537Z,100029.00
2024-04-23T23:20:52.064Z,100024.20
2024-04-23T23:23:25.931Z,100029.40
2024-04-23T23:25:59.628Z,100021.40
2024-04-23T23:28:33.163Z,100012.20
2024-04-23T23:31:07.021Z,100010.40
2024-04-23T23:33:40.723Z,100008.60
2024-04-23T23:36:14.709Z,100007.00
2024-04-23T23:38:48.482Z,100006.60
2024-04-23T23:41:22.737Z,100001.60
2024-04-23T23:43:56.516Z,99991.60
2024-04-23T23:46:30.131Z,99990.00
2024-04-23T23:49:03.730Z,99981.60
2024-04-23T23:51:37.379Z,99984.60
2024-04-23T23:54:11.029Z,99981.80
2024-04-23T23:56:44.708Z,99979.40
2024-04-23T23:59:18.766Z,99977.60
